sensor_id;sensor_type;location;lat;lon;timestamp;temperature;humidity
68257;DHT22;55069;51.568;4.656;2023-12-20T00:00:54;6.50;93.60
68257;DHT22;55069;51.568;4.656;2023-12-20T00:03:19;6.47;94.16
68257;DHT22;55069;51.568;4.656;2023-12-20T00:05:45;6.47;94.16
68257;DHT22;55069;51.568;4.656;2023-12-20T00:08:11;6.47;93.96
68257;DHT22;55069;51.568;4.656;2023-12-20T00:10:36;6.44;94.24
68257;DHT22;55069;51.568;4.656;2023-12-20T00:13:02;6.41;94.48
68257;DHT22;55069;51.568;4.656;2023-12-20T00:15:27;6.44;94.30
68257;DHT22;55069;51.568;4.656;2023-12-20T00:17:53;6.47;94.25
68257;DHT22;55069;51.568;4.656;2023-12-20T00:20:18;6.44;94.31
68257;DHT22;55069;51.568;4.656;2023-12-20T00:22:44;6.43;94.33
68257;DHT22;55069;51.568;4.656;2023-12-20T00:25:09;6.41;94.50
68257;DHT22;55069;51.568;4.656;2023-12-20T00:27:35;6.37;94.40
68257;DHT22;55069;51.568;4.656;2023-12-20T00:30:00;6.34;94.76
68257;DHT22;55069;51.568;4.656;2023-12-20T00:32:26;6.25;94.69
68257;DHT22;55069;51.568;4.656;2023-12-20T00:34:51;6.30;94.66
68257;DHT22;55069;51.568;4.656;2023-12-20T00:37:17;6.26;94.93
68257;DHT22;55069;51.568;4.656;2023-12-20T00:39:42;6.25;95.06
68257;DHT22;55069;51.568;4.656;2023-12-20T00:42:08;6.29;94.94
68257;DHT22;55069;51.568;4.656;2023-12-20T00:44:33;6.25;95.03
68257;DHT22;55069;51.568;4.656;2023-12-20T00:46:59;6.20;95.13
68257;DHT22;55069;51.568;4.656;2023-12-20T00:49:24;6.16;95.19
68257;DHT22;55069;51.568;4.656;2023-12-20T00:51:49;6.25;94.69
68257;DHT22;55069;51.568;4.656;2023-12-20T00:54:16;6.29;94.49
68257;DHT22;55069;51.568;4.656;2023-12-20T00:56:41;6.28;94.29
68257;DHT22;55069;51.568;4.656;2023-12-20T00:59:07;6.23;94.44
68257;DHT22;55069;51.568;4.656;2023-12-20T01:01:32;6.25;94.60
68257;DHT22;55069;51.568;4.656;2023-12-20T01:03:58;6.26;94.61
68257;DHT22;55069;51.568;4.656;2023-12-20T01:06:24;6.28;94.43
68257;DHT22;55069;51.568;4.656;2023-12-20T01:08:49;6.20;94.98
68257;DHT22;55069;51.568;4.656;2023-12-20T01:11:15;6.18;94.97
68257;DHT22;55069;51.568;4.656;2023-12-20T01:13:40;6.19;94.99
68257;DHT22;55069;51.568;4.656;2023-12-20T01:16:06;6.23;94.53
68257;DHT22;55069;51.568;4.656;2023-12-20T01:18:32;6.16;94.97
68257;DHT22;55069;51.568;4.656;2023-12-20T01:21:01;6.22;94.56
68257;DHT22;55069;51.568;4.656;2023-12-20T01:23:28;6.19;94.55
68257;DHT22;55069;51.568;4.656;2023-12-20T01:25:53;6.09;94.84
68257;DHT22;55069;51.568;4.656;2023-12-20T01:28:19;6.15;94.89
68257;DHT22;55069;51.568;4.656;2023-12-20T01:30:44;6.22;94.85
68257;DHT22;55069;51.568;4.656;2023-12-20T01:33:10;6.26;94.88
68257;DHT22;55069;51.568;4.656;2023-12-20T01:35:35;6.22;94.89
68257;DHT22;55069;51.568;4.656;2023-12-20T01:38:01;6.26;94.70
68257;DHT22;55069;51.568;4.656;2023-12-20T01:40:27;6.28;94.64
68257;DHT22;55069;51.568;4.656;2023-12-20T01:43:02;6.23;95.07
68257;DHT22;55069;51.568;4.656;2023-12-20T01:45:30;6.18;95.14
68257;DHT22;55069;51.568;4.656;2023-12-20T01:47:57;6.15;95.35
68257;DHT22;55069;51.568;4.656;2023-12-20T01:50:23;6.13;95.53
68257;DHT22;55069;51.568;4.656;2023-12-20T01:52:49;6.29;95.02
68257;DHT22;55069;51.568;4.656;2023-12-20T01:55:19;6.30;94.92
68257;DHT22;55069;51.568;4.656;2023-12-20T01:57:45;6.29;94.75
68257;DHT22;55069;51.568;4.656;2023-12-20T02:00:11;6.29;94.78
68257;DHT22;55069;51.568;4.656;2023-12-20T02:02:39;6.29;94.88
68257;DHT22;55069;51.568;4.656;2023-12-20T02:05:06;6.34;94.77
68257;DHT22;55069;51.568;4.656;2023-12-20T02:07:31;6.41;94.36
68257;DHT22;55069;51.568;4.656;2023-12-20T02:09:57;6.34;95.00
68257;DHT22;55069;51.568;4.656;2023-12-20T02:12:22;6.41;94.50
68257;DHT22;55069;51.568;4.656;2023-12-20T02:14:48;6.44;94.78
68257;DHT22;55069;51.568;4.656;2023-12-20T02:17:15;6.51;94.31
68257;DHT22;55069;51.568;4.656;2023-12-20T02:19:41;6.54;94.12
68257;DHT22;55069;51.568;4.656;2023-12-20T02:22:10;6.53;94.50
68257;DHT22;55069;51.568;4.656;2023-12-20T02:24:36;6.50;94.54
68257;DHT22;55069;51.568;4.656;2023-12-20T02:27:02;6.51;94.47
68257;DHT22;55069;51.568;4.656;2023-12-20T02:29:28;6.49;94.60
68257;DHT22;55069;51.568;4.656;2023-12-20T02:31:53;6.56;94.46
68257;DHT22;55069;51.568;4.656;2023-12-20T02:34:19;6.61;94.22
68257;DHT22;55069;51.568;4.656;2023-12-20T02:36:44;6.63;94.51
68257;DHT22;55069;51.568;4.656;2023-12-20T02:39:10;6.63;94.32
68257;DHT22;55069;51.568;4.656;2023-12-20T02:41:35;6.66;94.35
68257;DHT22;55069;51.568;4.656;2023-12-20T02:44:01;6.68;94.34
68257;DHT22;55069;51.568;4.656;2023-12-20T02:46:27;6.73;94.23
68257;DHT22;55069;51.568;4.656;2023-12-20T02:48:52;6.71;94.16
68257;DHT22;55069;51.568;4.656;2023-12-20T02:51:18;6.76;94.16
68257;DHT22;55069;51.568;4.656;2023-12-20T02:53:43;6.80;93.50
68257;DHT22;55069;51.568;4.656;2023-12-20T02:56:09;6.83;93.20
68257;DHT22;55069;51.568;4.656;2023-12-20T02:58:35;6.88;93.18
68257;DHT22;55069;51.568;4.656;2023-12-20T03:01:00;6.98;92.67
68257;DHT22;55069;51.568;4.656;2023-12-20T03:03:25;6.97;92.82
68257;DHT22;55069;51.568;4.656;2023-12-20T03:05:51;6.99;92.54
68257;DHT22;55069;51.568;4.656;2023-12-20T03:08:17;7.02;92.47
68257;DHT22;55069;51.568;4.656;2023-12-20T03:10:42;7.04;92.60
68257;DHT22;55069;51.568;4.656;2023-12-20T03:13:08;6.98;92.44
68257;DHT22;55069;51.568;4.656;2023-12-20T03:15:33;6.95;92.92
68257;DHT22;55069;51.568;4.656;2023-12-20T03:17:59;7.02;92.35
68257;DHT22;55069;51.568;4.656;2023-12-20T03:20:24;6.99;92.88
68257;DHT22;55069;51.568;4.656;2023-12-20T03:22:51;6.94;92.92
68257;DHT22;55069;51.568;4.656;2023-12-20T03:25:17;6.92;92.45
68257;DHT22;55069;51.568;4.656;2023-12-20T03:27:42;6.89;92.45
68257;DHT22;55069;51.568;4.656;2023-12-20T03:30:08;6.83;92.57
68257;DHT22;55069;51.568;4.656;2023-12-20T03:32:34;6.77;92.71
68257;DHT22;55069;51.568;4.656;2023-12-20T03:34:59;6.76;92.77
68257;DHT22;55069;51.568;4.656;2023-12-20T03:37:25;6.77;92.64
68257;DHT22;55069;51.568;4.656;2023-12-20T03:39:50;6.68;92.93
68257;DHT22;55069;51.568;4.656;2023-12-20T03:42:16;6.67;92.82
68257;DHT22;55069;51.568;4.656;2023-12-20T03:44:41;6.60;92.95
68257;DHT22;55069;51.568;4.656;2023-12-20T03:47:07;6.56;93.26
68257;DHT22;55069;51.568;4.656;2023-12-20T03:49:33;6.53;93.50
68257;DHT22;55069;51.568;4.656;2023-12-20T03:51:58;6.60;93.16
68257;DHT22;55069;51.568;4.656;2023-12-20T03:54:24;6.64;92.78
68257;DHT22;55069;51.568;4.656;2023-12-20T03:56:49;6.68;92.70
68257;DHT22;55069;51.568;4.656;2023-12-20T03:59:16;6.66;92.88
68257;DHT22;55069;51.568;4.656;2023-12-20T04:01:44;6.64;92.88
68257;DHT22;55069;51.568;4.656;2023-12-20T04:04:10;6.67;92.77
68257;DHT22;55069;51.568;4.656;2023-12-20T04:06:36;6.71;92.53
68257;DHT22;55069;51.568;4.656;2023-12-20T04:09:02;6.81;91.77
68257;DHT22;55069;51.568;4.656;2023-12-20T04:11:27;6.71;92.18
68257;DHT22;55069;51.568;4.656;2023-12-20T04:13:52;6.58;92.56
68257;DHT22;55069;51.568;4.656;2023-12-20T04:16:18;6.63;92.28
68257;DHT22;55069;51.568;4.656;2023-12-20T04:18:43;6.57;92.21
68257;DHT22;55069;51.568;4.656;2023-12-20T04:21:09;6.56;92.32
68257;DHT22;55069;51.568;4.656;2023-12-20T04:23:35;6.50;92.70
68257;DHT22;55069;51.568;4.656;2023-12-20T04:26:00;6.50;92.48
68257;DHT22;55069;51.568;4.656;2023-12-20T04:28:26;6.53;91.85
68257;DHT22;55069;51.568;4.656;2023-12-20T04:30:51;6.64;91.40
68257;DHT22;55069;51.568;4.656;2023-12-20T04:33:16;6.60;91.55
68257;DHT22;55069;51.568;4.656;2023-12-20T04:35:42;6.57;91.67
68257;DHT22;55069;51.568;4.656;2023-12-20T04:38:08;6.53;91.70
68257;DHT22;55069;51.568;4.656;2023-12-20T04:40:34;6.50;91.89
68257;DHT22;55069;51.568;4.656;2023-12-20T04:43:00;6.51;91.58
68257;DHT22;55069;51.568;4.656;2023-12-20T04:45:25;6.44;91.89
68257;DHT22;55069;51.568;4.656;2023-12-20T04:47:51;6.37;92.21
68257;DHT22;55069;51.568;4.656;2023-12-20T04:50:17;6.39;92.21
68257;DHT22;55069;51.568;4.656;2023-12-20T04:52:42;6.33;92.33
68257;DHT22;55069;51.568;4.656;2023-12-20T04:55:08;6.34;92.38
68257;DHT22;55069;51.568;4.656;2023-12-20T04:57:35;6.33;92.48
68257;DHT22;55069;51.568;4.656;2023-12-20T05:00:00;6.26;92.63
68257;DHT22;55069;51.568;4.656;2023-12-20T05:02:26;6.32;92.48
68257;DHT22;55069;51.568;4.656;2023-12-20T05:04:51;6.26;92.59
68257;DHT22;55069;51.568;4.656;2023-12-20T05:07:17;6.26;92.60
68257;DHT22;55069;51.568;4.656;2023-12-20T05:09:42;6.33;92.07
68257;DHT22;55069;51.568;4.656;2023-12-20T05:12:08;6.23;92.62
68257;DHT22;55069;51.568;4.656;2023-12-20T05:14:33;6.34;92.34
68257;DHT22;55069;51.568;4.656;2023-12-20T05:16:59;6.28;92.38
68257;DHT22;55069;51.568;4.656;2023-12-20T05:19:24;6.28;92.40
68257;DHT22;55069;51.568;4.656;2023-12-20T05:21:50;6.22;92.62
68257;DHT22;55069;51.568;4.656;2023-12-20T05:24:15;6.33;92.21
68257;DHT22;55069;51.568;4.656;2023-12-20T05:26:41;6.39;91.66
68257;DHT22;55069;51.568;4.656;2023-12-20T05:29:06;6.47;91.40
68257;DHT22;55069;51.568;4.656;2023-12-20T05:31:32;6.58;91.09
68257;DHT22;55069;51.568;4.656;2023-12-20T05:33:57;6.46;91.50
68257;DHT22;55069;51.568;4.656;2023-12-20T05:36:23;6.46;91.35
68257;DHT22;55069;51.568;4.656;2023-12-20T05:38:49;6.46;91.36
68257;DHT22;55069;51.568;4.656;2023-12-20T05:41:14;6.54;90.92
68257;DHT22;55069;51.568;4.656;2023-12-20T05:43:40;6.47;91.06
68257;DHT22;55069;51.568;4.656;2023-12-20T05:46:05;6.50;91.03
68257;DHT22;55069;51.568;4.656;2023-12-20T05:48:31;6.49;91.01
68257;DHT22;55069;51.568;4.656;2023-12-20T05:50:57;6.50;90.91
68257;DHT22;55069;51.568;4.656;2023-12-20T05:53:22;6.41;91.36
68257;DHT22;55069;51.568;4.656;2023-12-20T05:55:48;6.39;91.49
68257;DHT22;55069;51.568;4.656;2023-12-20T05:58:13;6.36;91.80
68257;DHT22;55069;51.568;4.656;2023-12-20T06:00:39;6.41;91.47
68257;DHT22;55069;51.568;4.656;2023-12-20T06:03:04;6.49;91.16
68257;DHT22;55069;51.568;4.656;2023-12-20T06:05:30;6.47;91.03
68257;DHT22;55069;51.568;4.656;2023-12-20T06:07:56;6.44;90.99
68257;DHT22;55069;51.568;4.656;2023-12-20T06:10:27;6.46;91.03
68257;DHT22;55069;51.568;4.656;2023-12-20T06:12:52;6.51;90.85
68257;DHT22;55069;51.568;4.656;2023-12-20T06:15:18;6.40;91.07
68257;DHT22;55069;51.568;4.656;2023-12-20T06:17:43;6.44;91.02
68257;DHT22;55069;51.568;4.656;2023-12-20T06:20:09;6.58;90.43
68257;DHT22;55069;51.568;4.656;2023-12-20T06:22:35;6.44;90.99
68257;DHT22;55069;51.568;4.656;2023-12-20T06:25:02;6.30;91.59
68257;DHT22;55069;51.568;4.656;2023-12-20T06:27:28;6.28;91.65
68257;DHT22;55069;51.568;4.656;2023-12-20T06:29:54;6.20;91.74
68257;DHT22;55069;51.568;4.656;2023-12-20T06:32:19;6.16;92.12
68257;DHT22;55069;51.568;4.656;2023-12-20T06:34:45;6.29;91.72
68257;DHT22;55069;51.568;4.656;2023-12-20T06:37:10;6.15;92.37
68257;DHT22;55069;51.568;4.656;2023-12-20T06:39:36;6.13;92.53
68257;DHT22;55069;51.568;4.656;2023-12-20T06:42:01;6.15;92.62
68257;DHT22;55069;51.568;4.656;2023-12-20T06:44:27;6.09;92.58
68257;DHT22;55069;51.568;4.656;2023-12-20T06:46:52;6.09;92.87
68257;DHT22;55069;51.568;4.656;2023-12-20T06:49:18;6.12;92.78
68257;DHT22;55069;51.568;4.656;2023-12-20T06:51:44;6.13;92.34
68257;DHT22;55069;51.568;4.656;2023-12-20T06:54:09;6.01;92.80
68257;DHT22;55069;51.568;4.656;2023-12-20T06:56:35;5.95;92.99
68257;DHT22;55069;51.568;4.656;2023-12-20T06:59:00;5.90;93.24
68257;DHT22;55069;51.568;4.656;2023-12-20T07:01:25;5.91;93.29
68257;DHT22;55069;51.568;4.656;2023-12-20T07:03:51;5.90;93.35
68257;DHT22;55069;51.568;4.656;2023-12-20T07:06:16;5.88;93.37
68257;DHT22;55069;51.568;4.656;2023-12-20T07:08:42;5.92;93.36
68257;DHT22;55069;51.568;4.656;2023-12-20T07:11:08;5.84;93.48
68257;DHT22;55069;51.568;4.656;2023-12-20T07:13:33;5.85;93.83
68257;DHT22;55069;51.568;4.656;2023-12-20T07:15:59;5.84;93.74
68257;DHT22;55069;51.568;4.656;2023-12-20T07:18:24;5.81;93.84
68257;DHT22;55069;51.568;4.656;2023-12-20T07:20:50;5.81;93.89
68257;DHT22;55069;51.568;4.656;2023-12-20T07:23:15;5.84;93.91
68257;DHT22;55069;51.568;4.656;2023-12-20T07:25:41;5.88;93.63
68257;DHT22;55069;51.568;4.656;2023-12-20T07:28:06;5.84;93.72
68257;DHT22;55069;51.568;4.656;2023-12-20T07:30:32;5.75;94.00
68257;DHT22;55069;51.568;4.656;2023-12-20T07:32:57;5.75;94.10
68257;DHT22;55069;51.568;4.656;2023-12-20T07:35:23;5.68;94.27
68257;DHT22;55069;51.568;4.656;2023-12-20T07:37:48;5.64;94.42
68257;DHT22;55069;51.568;4.656;2023-12-20T07:40:14;5.64;94.53
68257;DHT22;55069;51.568;4.656;2023-12-20T07:42:42;5.55;94.76
68257;DHT22;55069;51.568;4.656;2023-12-20T07:45:08;5.61;94.97
68257;DHT22;55069;51.568;4.656;2023-12-20T07:47:34;5.53;94.99
68257;DHT22;55069;51.568;4.656;2023-12-20T07:49:59;5.50;95.06
68257;DHT22;55069;51.568;4.656;2023-12-20T07:52:25;5.50;95.26
68257;DHT22;55069;51.568;4.656;2023-12-20T07:54:51;5.47;95.47
68257;DHT22;55069;51.568;4.656;2023-12-20T07:57:17;5.54;95.53
68257;DHT22;55069;51.568;4.656;2023-12-20T07:59:42;5.54;95.64
68257;DHT22;55069;51.568;4.656;2023-12-20T08:02:09;5.60;95.66
68257;DHT22;55069;51.568;4.656;2023-12-20T08:04:35;5.64;95.69
68257;DHT22;55069;51.568;4.656;2023-12-20T08:07:00;5.85;95.36
68257;DHT22;55069;51.568;4.656;2023-12-20T08:09:26;5.79;95.14
68257;DHT22;55069;51.568;4.656;2023-12-20T08:11:51;5.85;94.92
68257;DHT22;55069;51.568;4.656;2023-12-20T08:14:17;5.92;94.79
68257;DHT22;55069;51.568;4.656;2023-12-20T08:16:42;5.95;94.93
68257;DHT22;55069;51.568;4.656;2023-12-20T08:19:08;6.06;94.80
68257;DHT22;55069;51.568;4.656;2023-12-20T08:21:34;6.18;94.61
68257;DHT22;55069;51.568;4.656;2023-12-20T08:23:59;6.16;94.67
68257;DHT22;55069;51.568;4.656;2023-12-20T08:26:26;6.09;94.56
68257;DHT22;55069;51.568;4.656;2023-12-20T08:28:51;6.06;94.54
68257;DHT22;55069;51.568;4.656;2023-12-20T08:31:18;6.01;94.80
68257;DHT22;55069;51.568;4.656;2023-12-20T08:33:44;5.95;95.03
68257;DHT22;55069;51.568;4.656;2023-12-20T08:36:11;5.94;95.29
68257;DHT22;55069;51.568;4.656;2023-12-20T08:38:36;5.91;95.47
68257;DHT22;55069;51.568;4.656;2023-12-20T08:41:02;5.90;95.41
68257;DHT22;55069;51.568;4.656;2023-12-20T08:43:39;5.81;95.71
68257;DHT22;55069;51.568;4.656;2023-12-20T08:46:08;5.82;96.06
68257;DHT22;55069;51.568;4.656;2023-12-20T08:48:35;5.81;95.95
68257;DHT22;55069;51.568;4.656;2023-12-20T08:51:00;5.81;96.04
68257;DHT22;55069;51.568;4.656;2023-12-20T08:53:26;5.82;96.35
68257;DHT22;55069;51.568;4.656;2023-12-20T08:55:52;5.91;96.34
68257;DHT22;55069;51.568;4.656;2023-12-20T08:58:17;6.02;96.44
68257;DHT22;55069;51.568;4.656;2023-12-20T09:00:43;6.09;96.34
68257;DHT22;55069;51.568;4.656;2023-12-20T09:03:09;6.18;96.18
68257;DHT22;55069;51.568;4.656;2023-12-20T09:05:34;6.23;96.08
68257;DHT22;55069;51.568;4.656;2023-12-20T09:08:00;6.32;95.76
68257;DHT22;55069;51.568;4.656;2023-12-20T09:10:25;6.36;95.43
68257;DHT22;55069;51.568;4.656;2023-12-20T09:12:52;6.44;95.37
68257;DHT22;55069;51.568;4.656;2023-12-20T09:15:24;6.50;94.70
68257;DHT22;55069;51.568;4.656;2023-12-20T09:17:50;6.57;94.98
68257;DHT22;55069;51.568;4.656;2023-12-20T09:20:16;6.64;94.38
68257;DHT22;55069;51.568;4.656;2023-12-20T09:22:41;6.61;94.40
68257;DHT22;55069;51.568;4.656;2023-12-20T09:25:08;6.66;94.30
68257;DHT22;55069;51.568;4.656;2023-12-20T09:27:33;6.71;94.29
68257;DHT22;55069;51.568;4.656;2023-12-20T09:29:59;6.77;94.25
68257;DHT22;55069;51.568;4.656;2023-12-20T09:32:24;6.74;94.29
68257;DHT22;55069;51.568;4.656;2023-12-20T09:34:50;6.80;94.08
68257;DHT22;55069;51.568;4.656;2023-12-20T09:37:15;6.88;94.34
68257;DHT22;55069;51.568;4.656;2023-12-20T09:39:41;6.92;94.02
68257;DHT22;55069;51.568;4.656;2023-12-20T09:42:07;6.97;94.05
68257;DHT22;55069;51.568;4.656;2023-12-20T09:44:33;7.02;94.02
68257;DHT22;55069;51.568;4.656;2023-12-20T09:47:05;7.07;93.63
68257;DHT22;55069;51.568;4.656;2023-12-20T09:49:30;7.11;93.32
68257;DHT22;55069;51.568;4.656;2023-12-20T09:51:59;7.15;93.38
68257;DHT22;55069;51.568;4.656;2023-12-20T09:54:27;7.20;93.02
68257;DHT22;55069;51.568;4.656;2023-12-20T09:56:53;7.19;93.24
68257;DHT22;55069;51.568;4.656;2023-12-20T09:59:19;7.25;93.11
68257;DHT22;55069;51.568;4.656;2023-12-20T10:01:44;7.26;93.12
68257;DHT22;55069;51.568;4.656;2023-12-20T10:04:12;7.26;92.99
68257;DHT22;55069;51.568;4.656;2023-12-20T10:06:42;7.32;92.98
68257;DHT22;55069;51.568;4.656;2023-12-20T10:09:09;7.33;93.12
68257;DHT22;55069;51.568;4.656;2023-12-20T10:11:38;7.35;93.11
68257;DHT22;55069;51.568;4.656;2023-12-20T10:14:05;7.32;93.13
68257;DHT22;55069;51.568;4.656;2023-12-20T10:16:31;7.33;93.02
68257;DHT22;55069;51.568;4.656;2023-12-20T10:18:58;7.39;93.09
68257;DHT22;55069;51.568;4.656;2023-12-20T10:21:24;7.37;93.05
68257;DHT22;55069;51.568;4.656;2023-12-20T10:23:52;7.47;92.74
68257;DHT22;55069;51.568;4.656;2023-12-20T10:26:22;7.53;92.94
68257;DHT22;55069;51.568;4.656;2023-12-20T10:28:54;7.57;92.48
68257;DHT22;55069;51.568;4.656;2023-12-20T10:31:33;7.62;92.30
68257;DHT22;55069;51.568;4.656;2023-12-20T10:34:00;7.62;92.82
68257;DHT22;55069;51.568;4.656;2023-12-20T10:36:27;7.63;92.70
68257;DHT22;55069;51.568;4.656;2023-12-20T10:38:54;7.67;92.58
68257;DHT22;55069;51.568;4.656;2023-12-20T10:41:31;7.73;91.98
68257;DHT22;55069;51.568;4.656;2023-12-20T10:44:01;7.73;92.21
68257;DHT22;55069;51.568;4.656;2023-12-20T10:46:28;7.78;92.45
68257;DHT22;55069;51.568;4.656;2023-12-20T10:48:55;7.77;92.29
68257;DHT22;55069;51.568;4.656;2023-12-20T10:51:22;7.78;92.28
68257;DHT22;55069;51.568;4.656;2023-12-20T10:53:48;7.80;92.24
68257;DHT22;55069;51.568;4.656;2023-12-20T10:56:18;7.88;92.00
68257;DHT22;55069;51.568;4.656;2023-12-20T10:58:48;7.93;91.94
68257;DHT22;55069;51.568;4.656;2023-12-20T11:01:15;7.95;91.98
68257;DHT22;55069;51.568;4.656;2023-12-20T11:03:47;7.95;91.64
68257;DHT22;55069;51.568;4.656;2023-12-20T11:08:57;8.02;91.69
68257;DHT22;55069;51.568;4.656;2023-12-20T11:11:33;8.04;91.59
68257;DHT22;55069;51.568;4.656;2023-12-20T11:14:04;8.05;91.83
68257;DHT22;55069;51.568;4.656;2023-12-20T11:16:33;8.06;91.99
68257;DHT22;55069;51.568;4.656;2023-12-20T11:19:05;8.15;91.61
68257;DHT22;55069;51.568;4.656;2023-12-20T11:21:30;8.16;91.35
68257;DHT22;55069;51.568;4.656;2023-12-20T11:23:56;8.21;91.07
68257;DHT22;55069;51.568;4.656;2023-12-20T11:26:28;8.24;91.04
68257;DHT22;55069;51.568;4.656;2023-12-20T11:29:33;8.26;91.20
68257;DHT22;55069;51.568;4.656;2023-12-20T11:32:03;8.35;90.76
68257;DHT22;55069;51.568;4.656;2023-12-20T11:34:48;8.41;90.62
68257;DHT22;55069;51.568;4.656;2023-12-20T11:37:14;8.53;89.62
68257;DHT22;55069;51.568;4.656;2023-12-20T11:39:40;8.57;89.66
68257;DHT22;55069;51.568;4.656;2023-12-20T11:42:06;8.63;89.56
68257;DHT22;55069;51.568;4.656;2023-12-20T11:44:32;8.63;89.84
68257;DHT22;55069;51.568;4.656;2023-12-20T11:46:58;8.67;89.36
68257;DHT22;55069;51.568;4.656;2023-12-20T11:49:24;8.67;89.38
68257;DHT22;55069;51.568;4.656;2023-12-20T11:51:50;8.74;89.03
68257;DHT22;55069;51.568;4.656;2023-12-20T11:54:16;8.79;88.80
68257;DHT22;55069;51.568;4.656;2023-12-20T11:56:42;8.80;88.96
68257;DHT22;55069;51.568;4.656;2023-12-20T11:59:08;8.90;88.82
68257;DHT22;55069;51.568;4.656;2023-12-20T12:01:34;8.97;88.43
68257;DHT22;55069;51.568;4.656;2023-12-20T12:04:06;9.05;88.20
68257;DHT22;55069;51.568;4.656;2023-12-20T12:06:32;9.07;88.20
68257;DHT22;55069;51.568;4.656;2023-12-20T12:08:57;9.07;87.80
68257;DHT22;55069;51.568;4.656;2023-12-20T12:11:23;9.11;88.48
68257;DHT22;55069;51.568;4.656;2023-12-20T12:13:49;9.10;88.00
68257;DHT22;55069;51.568;4.656;2023-12-20T12:16:18;9.10;88.00
68257;DHT22;55069;51.568;4.656;2023-12-20T12:18:58;9.10;88.12
68257;DHT22;55069;51.568;4.656;2023-12-20T12:21:24;9.07;88.13
68257;DHT22;55069;51.568;4.656;2023-12-20T12:23:50;9.11;88.16
68257;DHT22;55069;51.568;4.656;2023-12-20T12:26:15;9.08;88.10
68257;DHT22;55069;51.568;4.656;2023-12-20T12:28:41;9.12;88.06
68257;DHT22;55069;51.568;4.656;2023-12-20T12:31:08;9.11;88.33
68257;DHT22;55069;51.568;4.656;2023-12-20T12:33:34;9.11;88.20
68257;DHT22;55069;51.568;4.656;2023-12-20T12:36:03;9.10;88.37
68257;DHT22;55069;51.568;4.656;2023-12-20T12:38:30;9.11;88.19
68257;DHT22;55069;51.568;4.656;2023-12-20T12:40:56;9.07;88.13
68257;DHT22;55069;51.568;4.656;2023-12-20T12:43:21;9.11;88.12
68257;DHT22;55069;51.568;4.656;2023-12-20T12:45:48;9.08;87.81
68257;DHT22;55069;51.568;4.656;2023-12-20T12:48:14;9.11;87.66
68257;DHT22;55069;51.568;4.656;2023-12-20T12:50:40;9.12;87.59
68257;DHT22;55069;51.568;4.656;2023-12-20T12:53:05;9.11;87.66
68257;DHT22;55069;51.568;4.656;2023-12-20T12:55:31;9.17;87.83
68257;DHT22;55069;51.568;4.656;2023-12-20T12:57:56;9.19;87.13
68257;DHT22;55069;51.568;4.656;2023-12-20T13:00:22;9.15;87.54
68257;DHT22;55069;51.568;4.656;2023-12-20T13:02:48;9.21;87.60
68257;DHT22;55069;51.568;4.656;2023-12-20T13:05:13;9.19;87.40
68257;DHT22;55069;51.568;4.656;2023-12-20T13:07:39;9.19;87.19
68257;DHT22;55069;51.568;4.656;2023-12-20T13:10:05;9.19;87.17
68257;DHT22;55069;51.568;4.656;2023-12-20T13:12:31;9.18;87.00
68257;DHT22;55069;51.568;4.656;2023-12-20T13:14:57;9.22;87.44
68257;DHT22;55069;51.568;4.656;2023-12-20T13:17:23;9.21;87.15
68257;DHT22;55069;51.568;4.656;2023-12-20T13:19:48;9.17;87.15
68257;DHT22;55069;51.568;4.656;2023-12-20T13:22:15;9.18;86.84
68257;DHT22;55069;51.568;4.656;2023-12-20T13:24:41;9.19;87.35
68257;DHT22;55069;51.568;4.656;2023-12-20T13:27:09;9.15;87.13
68257;DHT22;55069;51.568;4.656;2023-12-20T13:29:34;9.17;87.22
68257;DHT22;55069;51.568;4.656;2023-12-20T13:32:00;9.17;87.04
68257;DHT22;55069;51.568;4.656;2023-12-20T13:34:25;9.15;87.59
68257;DHT22;55069;51.568;4.656;2023-12-20T13:36:51;9.15;87.82
68257;DHT22;55069;51.568;4.656;2023-12-20T13:39:16;9.14;87.70
68257;DHT22;55069;51.568;4.656;2023-12-20T13:41:42;9.14;87.82
68257;DHT22;55069;51.568;4.656;2023-12-20T13:44:08;9.15;87.82
68257;DHT22;55069;51.568;4.656;2023-12-20T13:46:33;9.15;87.96
68257;DHT22;55069;51.568;4.656;2023-12-20T13:48:59;9.18;88.12
68257;DHT22;55069;51.568;4.656;2023-12-20T13:51:25;9.15;87.89
68257;DHT22;55069;51.568;4.656;2023-12-20T13:53:50;9.14;87.77
68257;DHT22;55069;51.568;4.656;2023-12-20T13:56:16;9.18;87.59
68257;DHT22;55069;51.568;4.656;2023-12-20T13:58:41;9.15;87.64
68257;DHT22;55069;51.568;4.656;2023-12-20T14:01:08;9.12;87.83
68257;DHT22;55069;51.568;4.656;2023-12-20T14:03:34;9.18;87.84
68257;DHT22;55069;51.568;4.656;2023-12-20T14:06:00;9.18;87.78
68257;DHT22;55069;51.568;4.656;2023-12-20T14:08:26;9.17;87.82
68257;DHT22;55069;51.568;4.656;2023-12-20T14:10:52;9.14;87.89
68257;DHT22;55069;51.568;4.656;2023-12-20T14:13:18;9.15;87.99
68257;DHT22;55069;51.568;4.656;2023-12-20T14:15:44;9.12;87.80
68257;DHT22;55069;51.568;4.656;2023-12-20T14:18:10;9.14;87.86
68257;DHT22;55069;51.568;4.656;2023-12-20T14:20:37;9.15;87.82
68257;DHT22;55069;51.568;4.656;2023-12-20T14:23:05;9.15;88.15
68257;DHT22;55069;51.568;4.656;2023-12-20T14:25:30;9.14;87.98
68257;DHT22;55069;51.568;4.656;2023-12-20T14:27:56;9.10;88.07
68257;DHT22;55069;51.568;4.656;2023-12-20T14:30:22;9.10;88.31
68257;DHT22;55069;51.568;4.656;2023-12-20T14:32:48;9.12;87.89
68257;DHT22;55069;51.568;4.656;2023-12-20T14:35:14;9.12;87.99
68257;DHT22;55069;51.568;4.656;2023-12-20T14:37:39;9.10;88.05
68257;DHT22;55069;51.568;4.656;2023-12-20T14:40:09;9.14;87.90
68257;DHT22;55069;51.568;4.656;2023-12-20T14:42:46;9.12;87.97
68257;DHT22;55069;51.568;4.656;2023-12-20T14:45:12;9.14;88.00
68257;DHT22;55069;51.568;4.656;2023-12-20T14:47:39;9.14;88.41
68257;DHT22;55069;51.568;4.656;2023-12-20T14:50:05;9.11;88.16
68257;DHT22;55069;51.568;4.656;2023-12-20T14:52:32;9.11;88.35
68257;DHT22;55069;51.568;4.656;2023-12-20T14:54:59;9.08;88.61
68257;DHT22;55069;51.568;4.656;2023-12-20T14:57:25;9.08;88.61
68257;DHT22;55069;51.568;4.656;2023-12-20T14:59:51;9.10;88.84
68257;DHT22;55069;51.568;4.656;2023-12-20T15:02:17;9.11;88.54
68257;DHT22;55069;51.568;4.656;2023-12-20T15:04:43;9.08;89.07
68257;DHT22;55069;51.568;4.656;2023-12-20T15:07:08;9.08;89.03
68257;DHT22;55069;51.568;4.656;2023-12-20T15:09:34;9.05;88.94
68257;DHT22;55069;51.568;4.656;2023-12-20T15:11:59;9.04;89.29
68257;DHT22;55069;51.568;4.656;2023-12-20T15:14:25;9.07;89.01
68257;DHT22;55069;51.568;4.656;2023-12-20T15:16:51;9.03;89.18
68257;DHT22;55069;51.568;4.656;2023-12-20T15:19:16;9.05;89.39
68257;DHT22;55069;51.568;4.656;2023-12-20T15:21:42;9.01;89.46
68257;DHT22;55069;51.568;4.656;2023-12-20T15:24:11;9.01;89.92
68257;DHT22;55069;51.568;4.656;2023-12-20T15:26:42;8.96;90.09
68257;DHT22;55069;51.568;4.656;2023-12-20T15:29:09;8.94;90.22
68257;DHT22;55069;51.568;4.656;2023-12-20T15:31:36;8.96;90.36
68257;DHT22;55069;51.568;4.656;2023-12-20T15:34:02;8.92;90.55
68257;DHT22;55069;51.568;4.656;2023-12-20T15:36:28;8.90;91.13
68257;DHT22;55069;51.568;4.656;2023-12-20T15:38:54;8.80;91.87
68257;DHT22;55069;51.568;4.656;2023-12-20T15:41:20;8.80;92.16